sensor_id;sensor_type;location;lat;lon;timestamp;P1;durP1;ratioP1;P2;durP2;ratioP2
31728;SDS011;18309;43.658;1.312;2022-12-08T00:00:38;81.50;;;36.78;;
31728;SDS011;18309;43.658;1.312;2022-12-08T00:03:03;74.40;;;34.22;;
31728;SDS011;18309;43.658;1.312;2022-12-08T00:05:30;86.20;;;37.30;;
31728;SDS011;18309;43.658;1.312;2022-12-08T00:08:15;81.72;;;35.97;;
31728;SDS011;18309;43.658;1.312;2022-12-08T00:10:59;72.57;;;33.63;;
31728;SDS011;18309;43.658;1.312;2022-12-08T00:13:24;71.32;;;33.80;;
31728;SDS011;18309;43.658;1.312;2022-12-08T00:15:50;74.43;;;34.05;;
31728;SDS011;18309;43.658;1.312;2022-12-08T00:18:16;68.88;;;32.50;;
31728;SDS011;18309;43.658;1.312;2022-12-08T00:20:41;69.63;;;31.80;;
31728;SDS011;18309;43.658;1.312;2022-12-08T00:23:07;68.60;;;32.70;;
31728;SDS011;18309;43.658;1.312;2022-12-08T00:25:36;74.22;;;33.20;;
31728;SDS011;18309;43.658;1.312;2022-12-08T00:28:02;76.30;;;34.83;;
31728;SDS011;18309;43.658;1.312;2022-12-08T00:30:27;76.82;;;33.38;;
31728;SDS011;18309;43.658;1.312;2022-12-08T00:32:53;76.53;;;33.70;;
31728;SDS011;18309;43.658;1.312;2022-12-08T00:35:19;76.82;;;35.60;;
31728;SDS011;18309;43.658;1.312;2022-12-08T00:37:44;70.78;;;33.97;;
31728;SDS011;18309;43.658;1.312;2022-12-08T00:40:10;77.60;;;34.60;;
31728;SDS011;18309;43.658;1.312;2022-12-08T00:42:36;81.15;;;35.22;;
31728;SDS011;18309;43.658;1.312;2022-12-08T00:45:02;71.28;;;34.38;;
31728;SDS011;18309;43.658;1.312;2022-12-08T00:47:28;73.43;;;34.80;;
31728;SDS011;18309;43.658;1.312;2022-12-08T00:49:53;73.15;;;34.42;;
31728;SDS011;18309;43.658;1.312;2022-12-08T00:52:19;85.55;;;36.85;;
31728;SDS011;18309;43.658;1.312;2022-12-08T00:54:45;78.00;;;35.30;;
31728;SDS011;18309;43.658;1.312;2022-12-08T00:57:10;78.43;;;36.97;;
31728;SDS011;18309;43.658;1.312;2022-12-08T00:59:36;78.40;;;35.78;;
31728;SDS011;18309;43.658;1.312;2022-12-08T01:02:02;79.15;;;37.25;;
31728;SDS011;18309;43.658;1.312;2022-12-08T01:04:28;91.30;;;39.13;;
31728;SDS011;18309;43.658;1.312;2022-12-08T01:06:53;83.03;;;39.75;;
31728;SDS011;18309;43.658;1.312;2022-12-08T01:09:19;88.35;;;42.13;;
31728;SDS011;18309;43.658;1.312;2022-12-08T01:11:45;87.38;;;40.08;;
31728;SDS011;18309;43.658;1.312;2022-12-08T01:14:11;84.22;;;40.20;;
31728;SDS011;18309;43.658;1.312;2022-12-08T01:16:37;88.03;;;41.95;;
31728;SDS011;18309;43.658;1.312;2022-12-08T01:19:05;77.85;;;40.47;;
31728;SDS011;18309;43.658;1.312;2022-12-08T01:21:31;89.25;;;41.25;;
31728;SDS011;18309;43.658;1.312;2022-12-08T01:23:58;89.10;;;41.65;;
31728;SDS011;18309;43.658;1.312;2022-12-08T01:26:24;82.57;;;42.47;;
31728;SDS011;18309;43.658;1.312;2022-12-08T01:28:50;88.68;;;42.97;;
31728;SDS011;18309;43.658;1.312;2022-12-08T01:31:17;85.55;;;42.67;;
31728;SDS011;18309;43.658;1.312;2022-12-08T01:33:45;87.43;;;41.13;;
31728;SDS011;18309;43.658;1.312;2022-12-08T01:36:19;94.32;;;42.33;;
31728;SDS011;18309;43.658;1.312;2022-12-08T01:38:47;80.25;;;42.33;;
31728;SDS011;18309;43.658;1.312;2022-12-08T01:41:14;85.68;;;40.40;;
31728;SDS011;18309;43.658;1.312;2022-12-08T01:43:48;75.00;;;39.35;;
31728;SDS011;18309;43.658;1.312;2022-12-08T01:46:16;68.40;;;36.08;;
31728;SDS011;18309;43.658;1.312;2022-12-08T01:48:41;74.38;;;35.47;;
31728;SDS011;18309;43.658;1.312;2022-12-08T01:51:07;67.22;;;34.45;;
31728;SDS011;18309;43.658;1.312;2022-12-08T01:53:33;67.47;;;34.63;;
31728;SDS011;18309;43.658;1.312;2022-12-08T01:56:05;70.45;;;33.03;;
31728;SDS011;18309;43.658;1.312;2022-12-08T01:58:42;66.05;;;31.00;;
31728;SDS011;18309;43.658;1.312;2022-12-08T02:01:10;76.53;;;34.85;;
31728;SDS011;18309;43.658;1.312;2022-12-08T02:06:22;64.82;;;32.90;;
31728;SDS011;18309;43.658;1.312;2022-12-08T02:08:49;71.85;;;34.70;;
31728;SDS011;18309;43.658;1.312;2022-12-08T02:11:16;71.65;;;33.72;;
31728;SDS011;18309;43.658;1.312;2022-12-08T02:13:42;69.30;;;34.45;;
31728;SDS011;18309;43.658;1.312;2022-12-08T02:21:57;53.10;;;30.13;;
31728;SDS011;18309;43.658;1.312;2022-12-08T02:43:38;48.28;;;22.95;;
31728;SDS011;18309;43.658;1.312;2022-12-08T02:46:17;44.40;;;21.42;;
31728;SDS011;18309;43.658;1.312;2022-12-08T02:48:59;42.90;;;22.23;;
31728;SDS011;18309;43.658;1.312;2022-12-08T02:51:26;42.78;;;20.92;;
31728;SDS011;18309;43.658;1.312;2022-12-08T02:53:51;42.08;;;21.50;;
31728;SDS011;18309;43.658;1.312;2022-12-08T03:09:49;30.15;;;15.65;;
31728;SDS011;18309;43.658;1.312;2022-12-08T03:15:09;32.63;;;15.75;;
31728;SDS011;18309;43.658;1.312;2022-12-08T03:17:40;31.88;;;16.08;;
31728;SDS011;18309;43.658;1.312;2022-12-08T03:20:10;24.70;;;14.25;;
31728;SDS011;18309;43.658;1.312;2022-12-08T03:25:16;31.58;;;14.90;;
31728;SDS011;18309;43.658;1.312;2022-12-08T03:27:46;30.67;;;14.43;;
31728;SDS011;18309;43.658;1.312;2022-12-08T03:30:12;27.40;;;13.60;;
31728;SDS011;18309;43.658;1.312;2022-12-08T03:35:19;22.08;;;10.82;;
31728;SDS011;18309;43.658;1.312;2022-12-08T03:37:48;20.33;;;11.52;;
31728;SDS011;18309;43.658;1.312;2022-12-08T03:40:15;25.25;;;12.00;;
31728;SDS011;18309;43.658;1.312;2022-12-08T03:42:43;22.10;;;11.95;;
31728;SDS011;18309;43.658;1.312;2022-12-08T03:45:09;25.52;;;12.18;;
31728;SDS011;18309;43.658;1.312;2022-12-08T03:47:35;23.90;;;11.75;;
31728;SDS011;18309;43.658;1.312;2022-12-08T03:50:01;26.05;;;12.32;;
31728;SDS011;18309;43.658;1.312;2022-12-08T03:52:27;24.02;;;12.18;;
31728;SDS011;18309;43.658;1.312;2022-12-08T03:54:53;23.40;;;11.13;;
31728;SDS011;18309;43.658;1.312;2022-12-08T03:57:19;23.17;;;12.25;;
31728;SDS011;18309;43.658;1.312;2022-12-08T03:59:45;22.60;;;11.02;;
31728;SDS011;18309;43.658;1.312;2022-12-08T04:02:11;22.92;;;11.32;;
31728;SDS011;18309;43.658;1.312;2022-12-08T04:04:37;22.20;;;11.63;;
31728;SDS011;18309;43.658;1.312;2022-12-08T04:07:02;23.90;;;12.07;;
31728;SDS011;18309;43.658;1.312;2022-12-08T04:09:28;25.95;;;11.25;;
31728;SDS011;18309;43.658;1.312;2022-12-08T04:11:54;25.00;;;11.23;;
31728;SDS011;18309;43.658;1.312;2022-12-08T04:14:19;20.83;;;10.70;;
31728;SDS011;18309;43.658;1.312;2022-12-08T04:16:45;22.02;;;11.45;;
31728;SDS011;18309;43.658;1.312;2022-12-08T04:19:11;20.60;;;11.20;;
31728;SDS011;18309;43.658;1.312;2022-12-08T04:21:36;20.45;;;10.40;;
31728;SDS011;18309;43.658;1.312;2022-12-08T04:24:02;18.92;;;9.65;;
31728;SDS011;18309;43.658;1.312;2022-12-08T04:26:28;21.35;;;9.20;;
31728;SDS011;18309;43.658;1.312;2022-12-08T04:28:53;20.23;;;9.50;;
31728;SDS011;18309;43.658;1.312;2022-12-08T04:31:19;22.38;;;9.60;;
31728;SDS011;18309;43.658;1.312;2022-12-08T04:33:45;19.60;;;9.25;;
31728;SDS011;18309;43.658;1.312;2022-12-08T04:36:11;16.60;;;8.68;;
31728;SDS011;18309;43.658;1.312;2022-12-08T04:38:36;22.73;;;9.27;;
31728;SDS011;18309;43.658;1.312;2022-12-08T04:41:02;14.05;;;8.90;;
31728;SDS011;18309;43.658;1.312;2022-12-08T04:43:28;17.50;;;9.52;;
31728;SDS011;18309;43.658;1.312;2022-12-08T04:45:54;16.25;;;8.52;;
31728;SDS011;18309;43.658;1.312;2022-12-08T04:48:20;25.50;;;9.75;;
31728;SDS011;18309;43.658;1.312;2022-12-08T04:50:45;17.80;;;8.20;;
31728;SDS011;18309;43.658;1.312;2022-12-08T04:53:11;18.10;;;9.25;;
31728;SDS011;18309;43.658;1.312;2022-12-08T04:55:38;19.00;;;8.68;;
31728;SDS011;18309;43.658;1.312;2022-12-08T04:58:11;15.73;;;9.05;;
31728;SDS011;18309;43.658;1.312;2022-12-08T05:00:38;17.35;;;9.43;;
31728;SDS011;18309;43.658;1.312;2022-12-08T05:03:04;17.58;;;9.68;;
31728;SDS011;18309;43.658;1.312;2022-12-08T05:05:29;15.48;;;9.02;;
31728;SDS011;18309;43.658;1.312;2022-12-08T05:07:55;17.55;;;9.38;;
31728;SDS011;18309;43.658;1.312;2022-12-08T05:10:21;18.88;;;9.32;;
31728;SDS011;18309;43.658;1.312;2022-12-08T05:12:46;18.77;;;9.50;;
31728;SDS011;18309;43.658;1.312;2022-12-08T05:15:12;16.00;;;8.85;;
31728;SDS011;18309;43.658;1.312;2022-12-08T05:17:38;19.60;;;9.63;;
31728;SDS011;18309;43.658;1.312;2022-12-08T05:20:04;20.65;;;9.75;;
31728;SDS011;18309;43.658;1.312;2022-12-08T05:22:30;16.90;;;9.68;;
31728;SDS011;18309;43.658;1.312;2022-12-08T05:24:56;19.83;;;10.13;;
31728;SDS011;18309;43.658;1.312;2022-12-08T05:27:21;19.33;;;10.40;;
31728;SDS011;18309;43.658;1.312;2022-12-08T05:29:47;22.27;;;9.15;;
31728;SDS011;18309;43.658;1.312;2022-12-08T05:32:14;18.65;;;9.52;;
31728;SDS011;18309;43.658;1.312;2022-12-08T05:34:40;19.33;;;10.00;;
31728;SDS011;18309;43.658;1.312;2022-12-08T05:37:06;19.15;;;9.80;;
31728;SDS011;18309;43.658;1.312;2022-12-08T05:39:32;21.83;;;10.82;;
31728;SDS011;18309;43.658;1.312;2022-12-08T05:41:57;17.95;;;10.23;;
31728;SDS011;18309;43.658;1.312;2022-12-08T05:44:24;19.00;;;9.85;;
31728;SDS011;18309;43.658;1.312;2022-12-08T05:46:50;17.15;;;9.75;;
31728;SDS011;18309;43.658;1.312;2022-12-08T05:49:15;19.80;;;10.00;;
31728;SDS011;18309;43.658;1.312;2022-12-08T05:51:41;22.83;;;10.40;;
31728;SDS011;18309;43.658;1.312;2022-12-08T05:54:07;21.48;;;10.13;;
31728;SDS011;18309;43.658;1.312;2022-12-08T05:56:33;23.05;;;10.38;;
31728;SDS011;18309;43.658;1.312;2022-12-08T05:58:59;16.63;;;9.27;;
31728;SDS011;18309;43.658;1.312;2022-12-08T06:01:25;23.70;;;10.13;;
31728;SDS011;18309;43.658;1.312;2022-12-08T06:03:54;17.95;;;9.85;;
31728;SDS011;18309;43.658;1.312;2022-12-08T06:06:20;17.15;;;10.32;;
31728;SDS011;18309;43.658;1.312;2022-12-08T06:08:46;19.42;;;10.73;;
31728;SDS011;18309;43.658;1.312;2022-12-08T06:11:19;17.85;;;10.13;;
31728;SDS011;18309;43.658;1.312;2022-12-08T06:13:52;23.13;;;11.40;;
31728;SDS011;18309;43.658;1.312;2022-12-08T06:16:20;20.60;;;11.25;;
31728;SDS011;18309;43.658;1.312;2022-12-08T06:18:46;23.80;;;10.63;;
31728;SDS011;18309;43.658;1.312;2022-12-08T06:21:12;20.80;;;11.00;;
31728;SDS011;18309;43.658;1.312;2022-12-08T06:23:39;22.02;;;10.85;;
31728;SDS011;18309;43.658;1.312;2022-12-08T06:26:09;19.20;;;10.40;;
31728;SDS011;18309;43.658;1.312;2022-12-08T06:31:06;21.40;;;11.52;;
31728;SDS011;18309;43.658;1.312;2022-12-08T06:33:43;22.70;;;11.18;;
31728;SDS011;18309;43.658;1.312;2022-12-08T06:36:09;27.75;;;12.93;;
31728;SDS011;18309;43.658;1.312;2022-12-08T06:38:36;27.42;;;13.30;;
31728;SDS011;18309;43.658;1.312;2022-12-08T06:41:02;23.73;;;11.90;;
31728;SDS011;18309;43.658;1.312;2022-12-08T06:43:29;25.45;;;13.35;;
31728;SDS011;18309;43.658;1.312;2022-12-08T06:45:56;23.08;;;12.10;;
31728;SDS011;18309;43.658;1.312;2022-12-08T06:48:22;30.08;;;13.70;;
31728;SDS011;18309;43.658;1.312;2022-12-08T06:50:47;28.77;;;13.85;;
31728;SDS011;18309;43.658;1.312;2022-12-08T06:53:13;29.00;;;12.88;;
31728;SDS011;18309;43.658;1.312;2022-12-08T06:55:46;29.25;;;13.25;;
31728;SDS011;18309;43.658;1.312;2022-12-08T06:58:17;25.98;;;12.85;;
31728;SDS011;18309;43.658;1.312;2022-12-08T07:00:43;28.23;;;14.45;;
31728;SDS011;18309;43.658;1.312;2022-12-08T07:03:09;34.03;;;15.75;;
31728;SDS011;18309;43.658;1.312;2022-12-08T07:05:35;28.85;;;14.23;;
31728;SDS011;18309;43.658;1.312;2022-12-08T07:08:02;29.67;;;13.85;;
31728;SDS011;18309;43.658;1.312;2022-12-08T07:10:28;34.45;;;14.73;;
31728;SDS011;18309;43.658;1.312;2022-12-08T07:12:54;34.08;;;15.98;;
31728;SDS011;18309;43.658;1.312;2022-12-08T07:15:20;38.58;;;15.43;;
31728;SDS011;18309;43.658;1.312;2022-12-08T07:17:46;40.65;;;16.25;;
31728;SDS011;18309;43.658;1.312;2022-12-08T07:20:12;44.15;;;17.13;;
31728;SDS011;18309;43.658;1.312;2022-12-08T07:22:39;33.75;;;15.70;;
31728;SDS011;18309;43.658;1.312;2022-12-08T07:25:05;39.50;;;15.15;;
31728;SDS011;18309;43.658;1.312;2022-12-08T07:27:31;34.65;;;16.05;;
31728;SDS011;18309;43.658;1.312;2022-12-08T07:29:57;35.20;;;15.77;;
31728;SDS011;18309;43.658;1.312;2022-12-08T07:32:23;33.83;;;16.35;;
31728;SDS011;18309;43.658;1.312;2022-12-08T07:34:48;41.00;;;17.48;;
31728;SDS011;18309;43.658;1.312;2022-12-08T07:37:14;35.33;;;15.43;;
31728;SDS011;18309;43.658;1.312;2022-12-08T07:39:40;40.30;;;17.98;;
31728;SDS011;18309;43.658;1.312;2022-12-08T07:42:05;41.67;;;18.55;;
31728;SDS011;18309;43.658;1.312;2022-12-08T07:44:31;47.20;;;19.90;;
31728;SDS011;18309;43.658;1.312;2022-12-08T07:46:57;46.33;;;18.73;;
31728;SDS011;18309;43.658;1.312;2022-12-08T07:49:22;40.63;;;17.48;;
31728;SDS011;18309;43.658;1.312;2022-12-08T07:51:48;36.20;;;17.45;;
31728;SDS011;18309;43.658;1.312;2022-12-08T07:54:14;40.53;;;18.75;;
31728;SDS011;18309;43.658;1.312;2022-12-08T07:56:39;39.22;;;17.75;;
31728;SDS011;18309;43.658;1.312;2022-12-08T07:59:05;51.15;;;15.57;;
31728;SDS011;18309;43.658;1.312;2022-12-08T08:01:31;36.28;;;17.00;;
31728;SDS011;18309;43.658;1.312;2022-12-08T08:04:00;36.83;;;15.20;;
31728;SDS011;18309;43.658;1.312;2022-12-08T08:06:28;34.87;;;16.63;;
31728;SDS011;18309;43.658;1.312;2022-12-08T08:08:55;32.22;;;14.88;;
31728;SDS011;18309;43.658;1.312;2022-12-08T08:11:21;31.25;;;14.88;;
31728;SDS011;18309;43.658;1.312;2022-12-08T08:13:47;36.20;;;15.52;;
31728;SDS011;18309;43.658;1.312;2022-12-08T08:16:16;31.08;;;14.30;;
31728;SDS011;18309;43.658;1.312;2022-12-08T08:18:44;31.10;;;14.30;;
31728;SDS011;18309;43.658;1.312;2022-12-08T08:23:39;33.20;;;14.00;;
31728;SDS011;18309;43.658;1.312;2022-12-08T08:26:05;29.65;;;13.45;;
31728;SDS011;18309;43.658;1.312;2022-12-08T08:28:31;29.70;;;14.20;;
31728;SDS011;18309;43.658;1.312;2022-12-08T08:30:57;28.27;;;12.52;;
31728;SDS011;18309;43.658;1.312;2022-12-08T08:33:24;26.98;;;12.48;;
31728;SDS011;18309;43.658;1.312;2022-12-08T08:35:51;32.20;;;13.88;;
31728;SDS011;18309;43.658;1.312;2022-12-08T08:38:17;37.25;;;13.25;;
31728;SDS011;18309;43.658;1.312;2022-12-08T08:40:43;27.88;;;13.18;;
31728;SDS011;18309;43.658;1.312;2022-12-08T08:43:09;31.95;;;14.10;;
31728;SDS011;18309;43.658;1.312;2022-12-08T08:45:53;33.20;;;14.32;;
31728;SDS011;18309;43.658;1.312;2022-12-08T08:48:22;24.58;;;12.38;;
31728;SDS011;18309;43.658;1.312;2022-12-08T08:50:48;30.10;;;13.43;;
31728;SDS011;18309;43.658;1.312;2022-12-08T08:53:14;34.15;;;13.82;;
31728;SDS011;18309;43.658;1.312;2022-12-08T08:55:39;31.50;;;14.40;;
31728;SDS011;18309;43.658;1.312;2022-12-08T08:58:05;31.23;;;14.63;;
31728;SDS011;18309;43.658;1.312;2022-12-08T09:00:31;34.80;;;16.10;;
31728;SDS011;18309;43.658;1.312;2022-12-08T09:02:56;37.45;;;15.63;;
31728;SDS011;18309;43.658;1.312;2022-12-08T09:05:22;32.28;;;14.27;;
31728;SDS011;18309;43.658;1.312;2022-12-08T09:07:48;32.47;;;14.65;;
31728;SDS011;18309;43.658;1.312;2022-12-08T09:10:13;38.55;;;15.18;;
31728;SDS011;18309;43.658;1.312;2022-12-08T09:12:39;36.67;;;14.23;;
31728;SDS011;18309;43.658;1.312;2022-12-08T09:15:05;31.65;;;14.45;;
31728;SDS011;18309;43.658;1.312;2022-12-08T09:17:31;32.25;;;15.25;;
31728;SDS011;18309;43.658;1.312;2022-12-08T09:19:57;32.63;;;16.20;;
31728;SDS011;18309;43.658;1.312;2022-12-08T09:22:23;38.97;;;15.35;;
31728;SDS011;18309;43.658;1.312;2022-12-08T09:24:48;32.47;;;16.60;;
31728;SDS011;18309;43.658;1.312;2022-12-08T09:27:14;28.73;;;15.60;;
31728;SDS011;18309;43.658;1.312;2022-12-08T09:29:40;37.83;;;15.82;;
31728;SDS011;18309;43.658;1.312;2022-12-08T09:32:05;37.13;;;16.65;;
31728;SDS011;18309;43.658;1.312;2022-12-08T09:34:31;31.35;;;15.25;;
31728;SDS011;18309;43.658;1.312;2022-12-08T09:36:57;31.60;;;14.45;;
31728;SDS011;18309;43.658;1.312;2022-12-08T09:39:22;28.83;;;14.70;;
31728;SDS011;18309;43.658;1.312;2022-12-08T09:41:49;28.35;;;14.80;;
31728;SDS011;18309;43.658;1.312;2022-12-08T09:49:48;31.52;;;15.20;;
31728;SDS011;18309;43.658;1.312;2022-12-08T09:52:38;28.55;;;13.98;;
31728;SDS011;18309;43.658;1.312;2022-12-08T09:55:13;26.70;;;12.95;;
31728;SDS011;18309;43.658;1.312;2022-12-08T09:57:59;28.67;;;13.55;;
31728;SDS011;18309;43.658;1.312;2022-12-08T10:00:26;27.30;;;13.40;;
31728;SDS011;18309;43.658;1.312;2022-12-08T10:02:52;29.88;;;13.77;;
31728;SDS011;18309;43.658;1.312;2022-12-08T10:05:19;30.25;;;14.43;;
31728;SDS011;18309;43.658;1.312;2022-12-08T10:07:48;24.60;;;13.35;;
31728;SDS011;18309;43.658;1.312;2022-12-08T10:10:41;21.80;;;12.40;;
31728;SDS011;18309;43.658;1.312;2022-12-08T10:18:46;30.33;;;13.48;;
31728;SDS011;18309;43.658;1.312;2022-12-08T10:21:34;26.80;;;12.45;;
31728;SDS011;18309;43.658;1.312;2022-12-08T10:24:05;30.48;;;14.20;;
31728;SDS011;18309;43.658;1.312;2022-12-08T10:26:52;24.60;;;13.10;;
31728;SDS011;18309;43.658;1.312;2022-12-08T10:29:19;26.33;;;12.20;;
31728;SDS011;18309;43.658;1.312;2022-12-08T10:31:44;19.20;;;11.07;;
31728;SDS011;18309;43.658;1.312;2022-12-08T10:34:15;26.40;;;10.60;;
31728;SDS011;18309;43.658;1.312;2022-12-08T10:36:50;24.23;;;10.63;;
31728;SDS011;18309;43.658;1.312;2022-12-08T10:39:41;22.50;;;10.85;;
31728;SDS011;18309;43.658;1.312;2022-12-08T10:44:51;22.95;;;10.25;;
31728;SDS011;18309;43.658;1.312;2022-12-08T10:47:19;23.63;;;10.48;;
31728;SDS011;18309;43.658;1.312;2022-12-08T10:49:47;20.55;;;10.43;;
31728;SDS011;18309;43.658;1.312;2022-12-08T10:52:29;20.10;;;9.88;;
31728;SDS011;18309;43.658;1.312;2022-12-08T10:54:55;22.35;;;9.82;;
31728;SDS011;18309;43.658;1.312;2022-12-08T10:57:24;21.10;;;10.35;;
31728;SDS011;18309;43.658;1.312;2022-12-08T10:59:53;18.48;;;9.73;;
31728;SDS011;18309;43.658;1.312;2022-12-08T11:02:19;17.20;;;8.52;;
31728;SDS011;18309;43.658;1.312;2022-12-08T11:04:46;17.30;;;7.97;;
31728;SDS011;18309;43.658;1.312;2022-12-08T11:07:18;17.35;;;8.27;;
31728;SDS011;18309;43.658;1.312;2022-12-08T11:09:47;13.43;;;7.15;;
31728;SDS011;18309;43.658;1.312;2022-12-08T11:12:18;11.40;;;6.32;;
31728;SDS011;18309;43.658;1.312;2022-12-08T11:14:46;13.02;;;6.50;;
31728;SDS011;18309;43.658;1.312;2022-12-08T11:17:22;13.57;;;7.10;;
31728;SDS011;18309;43.658;1.312;2022-12-08T11:22:42;10.65;;;6.03;;
31728;SDS011;18309;43.658;1.312;2022-12-08T11:25:10;11.85;;;5.93;;
31728;SDS011;18309;43.658;1.312;2022-12-08T11:27:48;10.95;;;5.50;;
31728;SDS011;18309;43.658;1.312;2022-12-08T11:30:16;11.07;;;6.55;;
31728;SDS011;18309;43.658;1.312;2022-12-08T11:32:46;12.60;;;5.88;;
31728;SDS011;18309;43.658;1.312;2022-12-08T11:35:17;10.57;;;6.00;;
31728;SDS011;18309;43.658;1.312;2022-12-08T11:38:04;15.45;;;7.80;;
31728;SDS011;18309;43.658;1.312;2022-12-08T11:40:36;9.90;;;5.90;;
31728;SDS011;18309;43.658;1.312;2022-12-08T11:45:55;12.63;;;5.10;;
31728;SDS011;18309;43.658;1.312;2022-12-08T11:51:01;10.98;;;5.40;;
31728;SDS011;18309;43.658;1.312;2022-12-08T11:53:41;10.43;;;5.18;;
31728;SDS011;18309;43.658;1.312;2022-12-08T11:56:25;10.45;;;5.20;;
31728;SDS011;18309;43.658;1.312;2022-12-08T12:01:39;11.05;;;5.32;;
31728;SDS011;18309;43.658;1.312;2022-12-08T12:25:44;9.50;;;5.20;;
31728;SDS011;18309;43.658;1.312;2022-12-08T12:28:15;13.88;;;5.63;;
31728;SDS011;18309;43.658;1.312;2022-12-08T12:33:17;16.27;;;6.72;;
31728;SDS011;18309;43.658;1.312;2022-12-08T12:35:44;18.80;;;6.68;;
31728;SDS011;18309;43.658;1.312;2022-12-08T12:38:24;11.50;;;5.97;;
31728;SDS011;18309;43.658;1.312;2022-12-08T12:41:15;13.48;;;6.85;;
31728;SDS011;18309;43.658;1.312;2022-12-08T13:10:31;10.30;;;5.93;;
31728;SDS011;18309;43.658;1.312;2022-12-08T13:15:39;10.00;;;5.53;;
31728;SDS011;18309;43.658;1.312;2022-12-08T13:23:46;11.38;;;5.68;;
31728;SDS011;18309;43.658;1.312;2022-12-08T13:26:30;11.90;;;5.25;;
31728;SDS011;18309;43.658;1.312;2022-12-08T13:34:06;8.68;;;5.03;;
31728;SDS011;18309;43.658;1.312;2022-12-08T13:36:46;7.93;;;4.55;;
31728;SDS011;18309;43.658;1.312;2022-12-08T13:39:31;13.07;;;5.43;;
31728;SDS011;18309;43.658;1.312;2022-12-08T13:42:23;9.90;;;5.15;;
31728;SDS011;18309;43.658;1.312;2022-12-08T13:50:13;8.18;;;4.82;;
31728;SDS011;18309;43.658;1.312;2022-12-08T13:58:06;11.88;;;5.53;;
31728;SDS011;18309;43.658;1.312;2022-12-08T14:00:41;10.02;;;4.97;;
31728;SDS011;18309;43.658;1.312;2022-12-08T14:03:07;12.25;;;5.95;;
31728;SDS011;18309;43.658;1.312;2022-12-08T14:05:38;10.88;;;5.43;;
31728;SDS011;18309;43.658;1.312;2022-12-08T14:08:12;15.07;;;6.00;;
31728;SDS011;18309;43.658;1.312;2022-12-08T14:10:50;14.98;;;6.70;;
31728;SDS011;18309;43.658;1.312;2022-12-08T14:13:22;20.92;;;7.20;;
31728;SDS011;18309;43.658;1.312;2022-12-08T14:15:48;17.20;;;6.38;;
31728;SDS011;18309;43.658;1.312;2022-12-08T14:18:28;13.20;;;5.70;;
31728;SDS011;18309;43.658;1.312;2022-12-08T14:21:13;10.13;;;5.85;;
31728;SDS011;18309;43.658;1.312;2022-12-08T14:23:42;11.65;;;6.57;;
31728;SDS011;18309;43.658;1.312;2022-12-08T14:26:08;10.88;;;5.43;;
31728;SDS011;18309;43.658;1.312;2022-12-08T14:28:36;8.98;;;5.32;;
31728;SDS011;18309;43.658;1.312;2022-12-08T14:31:02;12.93;;;6.28;;
31728;SDS011;18309;43.658;1.312;2022-12-08T14:33:28;12.70;;;6.35;;
31728;SDS011;18309;43.658;1.312;2022-12-08T14:35:55;13.07;;;5.97;;
31728;SDS011;18309;43.658;1.312;2022-12-08T14:38:21;9.57;;;5.38;;
31728;SDS011;18309;43.658;1.312;2022-12-08T14:41:00;15.18;;;6.00;;
31728;SDS011;18309;43.658;1.312;2022-12-08T14:43:30;11.07;;;5.32;;
31728;SDS011;18309;43.658;1.312;2022-12-08T14:45:58;13.88;;;6.28;;
31728;SDS011;18309;43.658;1.312;2022-12-08T14:53:27;12.85;;;6.20;;
31728;SDS011;18309;43.658;1.312;2022-12-08T14:56:25;15.63;;;6.72;;
31728;SDS011;18309;43.658;1.312;2022-12-08T15:07:23;13.75;;;6.38;;
31728;SDS011;18309;43.658;1.312;2022-12-08T15:12:39;10.82;;;6.20;;
31728;SDS011;18309;43.658;1.312;2022-12-08T15:17:34;10.88;;;5.90;;
31728;SDS011;18309;43.658;1.312;2022-12-08T15:22:52;13.15;;;6.13;;
31728;SDS011;18309;43.658;1.312;2022-12-08T15:25:19;14.35;;;6.38;;
31728;SDS011;18309;43.658;1.312;2022-12-08T15:27:45;14.70;;;6.35;;
31728;SDS011;18309;43.658;1.312;2022-12-08T15:30:14;12.95;;;6.88;;
31728;SDS011;18309;43.658;1.312;2022-12-08T15:32:41;13.18;;;6.82;;
31728;SDS011;18309;43.658;1.312;2022-12-08T15:35:11;17.23;;;6.65;;
31728;SDS011;18309;43.658;1.312;2022-12-08T15:37:38;15.00;;;6.85;;
31728;SDS011;18309;43.658;1.312;2022-12-08T15:40:04;13.30;;;6.57;;
31728;SDS011;18309;43.658;1.312;2022-12-08T15:42:31;17.67;;;7.35;;
31728;SDS011;18309;43.658;1.312;2022-12-08T15:44:57;14.68;;;7.80;;
31728;SDS011;18309;43.658;1.312;2022-12-08T15:47:23;17.13;;;7.13;;
31728;SDS011;18309;43.658;1.312;2022-12-08T15:49:50;18.20;;;7.05;;
31728;SDS011;18309;43.658;1.312;2022-12-08T15:52:19;19.20;;;8.25;;
31728;SDS011;18309;43.658;1.312;2022-12-08T15:54:46;14.32;;;7.28;;
31728;SDS011;18309;43.658;1.312;2022-12-08T15:59:48;14.40;;;6.88;;
31728;SDS011;18309;43.658;1.312;2022-12-08T16:02:14;18.30;;;7.45;;
31728;SDS011;18309;43.658;1.312;2022-12-08T16:04:41;13.50;;;7.10;;
31728;SDS011;18309;43.658;1.312;2022-12-08T16:07:11;13.15;;;6.97;;
31728;SDS011;18309;43.658;1.312;2022-12-08T16:09:48;15.82;;;7.85;;
31728;SDS011;18309;43.658;1.312;2022-12-08T16:12:16;14.57;;;7.30;;
31728;SDS011;18309;43.658;1.312;2022-12-08T16:15:02;20.33;;;7.47;;
31728;SDS011;18309;43.658;1.312;2022-12-08T16:17:28;15.50;;;6.90;;
31728;SDS011;18309;43.658;1.312;2022-12-08T16:19:54;15.55;;;7.45;;
31728;SDS011;18309;43.658;1.312;2022-12-08T16:22:30;15.32;;;7.07;;
31728;SDS011;18309;43.658;1.312;2022-12-08T16:24:56;17.08;;;7.05;;
31728;SDS011;18309;43.658;1.312;2022-12-08T16:27:26;16.50;;;7.40;;
31728;SDS011;18309;43.658;1.312;2022-12-08T16:29:55;15.23;;;7.15;;
31728;SDS011;18309;43.658;1.312;2022-12-08T16:32:21;15.27;;;7.00;;
31728;SDS011;18309;43.658;1.312;2022-12-08T16:34:48;17.00;;;7.43;;
31728;SDS011;18309;43.658;1.312;2022-12-08T16:37:19;16.02;;;7.18;;
31728;SDS011;18309;43.658;1.312;2022-12-08T16:39:46;17.73;;;7.85;;
31728;SDS011;18309;43.658;1.312;2022-12-08T16:42:16;20.77;;;8.43;;
31728;SDS011;18309;43.658;1.312;2022-12-08T16:45:20;14.85;;;7.85;;
31728;SDS011;18309;43.658;1.312;2022-12-08T16:47:52;20.27;;;8.40;;
31728;SDS011;18309;43.658;1.312;2022-12-08T16:52:55;23.95;;;12.30;;
31728;SDS011;18309;43.658;1.312;2022-12-08T16:55:25;20.85;;;10.68;;
31728;SDS011;18309;43.658;1.312;2022-12-08T16:57:52;20.55;;;9.73;;
31728;SDS011;18309;43.658;1.312;2022-12-08T17:00:19;19.02;;;9.38;;
31728;SDS011;18309;43.658;1.312;2022-12-08T17:02:47;24.25;;;10.80;;
31728;SDS011;18309;43.658;1.312;2022-12-08T17:05:13;23.38;;;9.48;;
31728;SDS011;18309;43.658;1.312;2022-12-08T17:07:41;21.90;;;10.35;;
31728;SDS011;18309;43.658;1.312;2022-12-08T17:10:09;22.30;;;10.65;;
31728;SDS011;18309;43.658;1.312;2022-12-08T17:12:37;23.42;;;11.63;;
31728;SDS011;18309;43.658;1.312;2022-12-08T17:15:04;19.38;;;9.75;;
31728;SDS011;18309;43.658;1.312;2022-12-08T17:17:31;24.80;;;12.77;;
31728;SDS011;18309;43.658;1.312;2022-12-08T17:19:59;23.45;;;12.00;;
31728;SDS011;18309;43.658;1.312;2022-12-08T17:22:28;22.33;;;11.75;;
31728;SDS011;18309;43.658;1.312;2022-12-08T17:24:54;20.40;;;10.68;;
31728;SDS011;18309;43.658;1.312;2022-12-08T17:27:20;27.08;;;10.70;;
31728;SDS011;18309;43.658;1.312;2022-12-08T17:29:46;21.45;;;11.05;;
31728;SDS011;18309;43.658;1.312;2022-12-08T17:32:11;21.40;;;11.65;;
31728;SDS011;18309;43.658;1.312;2022-12-08T17:34:37;25.27;;;12.63;;